createdAt,value
2022-12-31T00:01:38.182Z,3.20
2022-12-31T00:04:46.866Z,3.20
2022-12-31T00:07:54.805Z,3.20
2022-12-31T00:11:02.577Z,3.22
2022-12-31T00:14:10.826Z,3.20
2022-12-31T00:17:18.663Z,3.20
2022-12-31T00:20:26.471Z,3.20
2022-12-31T00:23:34.569Z,3.30
2022-12-31T00:26:44.105Z,3.30
2022-12-31T00:29:52.097Z,3.30
2022-12-31T00:33:00.139Z,3.36
2022-12-31T00:39:31.979Z,3.36
2022-12-31T00:42:40.154Z,3.32
2022-12-31T00:45:48.132Z,3.30
2022-12-31T00:48:56.250Z,3.30
2022-12-31T00:52:04.620Z,3.30
2022-12-31T00:55:13.803Z,3.30
2022-12-31T00:58:22.279Z,3.30
2022-12-31T01:01:33.634Z,3.24
2022-12-31T01:04:41.456Z,3.20
2022-12-31T01:07:49.213Z,3.10
2022-12-31T01:11:14.491Z,3.10
2022-12-31T01:14:23.422Z,3.10
2022-12-31T01:17:31.429Z,3.04
2022-12-31T01:20:44.057Z,3.00
2022-12-31T01:23:52.372Z,3.00
2022-12-31T01:27:00.206Z,3.00
2022-12-31T01:30:11.151Z,3.00
2022-12-31T01:33:18.959Z,3.00
2022-12-31T01:36:32.245Z,3.00
2022-12-31T01:39:40.108Z,3.00
2022-12-31T01:42:54.720Z,3.00
2022-12-31T01:46:02.929Z,3.00
2022-12-31T01:49:18.998Z,3.00
2022-12-31T01:52:32.005Z,3.00
2022-12-31T01:55:48.013Z,3.00
2022-12-31T01:58:58.958Z,2.94
2022-12-31T02:02:07.918Z,2.90
2022-12-31T02:05:25.730Z,2.90
2022-12-31T02:08:39.936Z,2.90
2022-12-31T02:11:49.583Z,2.90
2022-12-31T02:14:59.015Z,2.90
2022-12-31T02:18:18.862Z,2.90
2022-12-31T02:22:02.096Z,2.90
2022-12-31T02:25:46.567Z,2.90
2022-12-31T02:29:32.262Z,2.88
2022-12-31T02:33:15.029Z,2.88
2022-12-31T02:36:28.276Z,2.86
2022-12-31T02:39:37.872Z,2.82
2022-12-31T02:42:50.092Z,2.80
2022-12-31T02:46:18.431Z,2.80
2022-12-31T02:49:41.785Z,2.80
2022-12-31T02:53:09.264Z,2.80
2022-12-31T02:56:28.820Z,2.80
2022-12-31T03:00:00.281Z,2.80
2022-12-31T03:03:10.517Z,2.80
2022-12-31T03:06:19.310Z,2.80
2022-12-31T03:09:27.298Z,2.80
2022-12-31T03:12:49.664Z,2.80
2022-12-31T03:15:57.678Z,2.80
2022-12-31T03:19:23.366Z,2.80
2022-12-31T03:22:31.669Z,2.80
2022-12-31T03:25:40.536Z,2.80
2022-12-31T03:28:49.127Z,2.80
2022-12-31T03:31:56.914Z,2.80
2022-12-31T03:35:05.136Z,2.80
2022-12-31T03:38:14.508Z,2.80
2022-12-31T03:41:22.684Z,2.80
2022-12-31T03:44:30.990Z,2.80
2022-12-31T03:47:39.702Z,2.80
2022-12-31T03:50:47.860Z,2.80
2022-12-31T03:53:55.745Z,2.80
2022-12-31T03:57:03.663Z,2.80
2022-12-31T04:00:19.353Z,2.80
2022-12-31T04:03:28.533Z,2.80
2022-12-31T04:06:36.349Z,2.72
2022-12-31T04:09:44.568Z,2.70
2022-12-31T04:12:52.510Z,2.70
2022-12-31T04:16:00.693Z,2.70
2022-12-31T04:19:08.840Z,2.70
2022-12-31T04:22:16.803Z,2.70
2022-12-31T04:25:24.982Z,2.70
2022-12-31T04:28:32.748Z,2.70
2022-12-31T04:31:40.766Z,2.70
2022-12-31T04:34:49.782Z,2.70
2022-12-31T04:37:57.771Z,2.70
2022-12-31T04:41:21.162Z,2.72
2022-12-31T04:45:01.891Z,2.72
2022-12-31T04:48:10.602Z,2.80
2022-12-31T04:51:19.174Z,2.80
2022-12-31T04:54:22.911Z,2.80
2022-12-31T04:57:30.839Z,2.80
2022-12-31T05:00:38.847Z,2.80
2022-12-31T05:03:49.403Z,2.80
2022-12-31T05:06:57.227Z,2.82
2022-12-31T05:10:05.871Z,2.80
2022-12-31T05:13:14.685Z,2.82
2022-12-31T05:16:22.788Z,2.80
2022-12-31T05:19:31.909Z,2.84
2022-12-31T05:22:40.353Z,2.82
2022-12-31T05:25:50.043Z,2.84
2022-12-31T05:29:00.425Z,2.88
2022-12-31T05:32:08.487Z,2.88
2022-12-31T05:35:16.271Z,2.90
2022-12-31T05:38:24.406Z,2.88
2022-12-31T05:41:32.327Z,2.90
2022-12-31T05:44:40.276Z,2.90
2022-12-31T05:47:48.521Z,2.90
2022-12-31T05:50:56.294Z,2.90
2022-12-31T05:54:04.295Z,2.90
2022-12-31T05:57:12.676Z,2.90
2022-12-31T06:00:21.759Z,2.90
2022-12-31T06:03:30.086Z,2.90
2022-12-31T06:06:38.231Z,2.90
2022-12-31T06:09:46.132Z,2.90
2022-12-31T06:12:53.937Z,2.90
2022-12-31T06:16:07.979Z,2.90
2022-12-31T06:19:16.184Z,2.90
2022-12-31T06:22:23.921Z,2.90
2022-12-31T06:25:31.789Z,2.90
2022-12-31T06:28:39.656Z,2.90
2022-12-31T06:31:47.774Z,2.90
2022-12-31T06:34:55.580Z,2.96
2022-12-31T06:38:03.587Z,3.00
2022-12-31T06:41:15.170Z,3.00
2022-12-31T06:44:23.787Z,3.10
2022-12-31T06:47:31.509Z,3.10
2022-12-31T06:50:40.564Z,3.20
2022-12-31T06:53:50.379Z,3.20
2022-12-31T06:56:57.667Z,3.20
2022-12-31T07:00:08.850Z,3.30
2022-12-31T07:03:36.883Z,3.30
2022-12-31T07:06:53.928Z,3.30
2022-12-31T07:10:15.293Z,3.32
2022-12-31T07:14:15.029Z,3.40
2022-12-31T07:17:39.832Z,3.40
2022-12-31T07:20:49.452Z,3.40
2022-12-31T07:24:00.750Z,3.50
2022-12-31T07:27:35.994Z,3.50
2022-12-31T07:31:00.809Z,3.50
2022-12-31T07:34:21.180Z,3.60
2022-12-31T07:37:45.624Z,3.68
2022-12-31T07:41:10.041Z,3.70
2022-12-31T07:44:37.857Z,3.70
2022-12-31T07:47:47.355Z,3.80
2022-12-31T07:50:58.305Z,3.80
2022-12-31T07:54:13.403Z,3.80
2022-12-31T07:57:26.784Z,3.82
2022-12-31T08:00:36.120Z,3.90
2022-12-31T08:04:03.164Z,3.90
2022-12-31T08:07:26.931Z,3.90
2022-12-31T08:10:53.567Z,3.90
2022-12-31T08:14:13.067Z,3.90
2022-12-31T08:17:24.935Z,3.90
2022-12-31T08:20:37.658Z,3.90
2022-12-31T08:23:55.740Z,3.90
2022-12-31T08:27:13.644Z,3.90
2022-12-31T08:30:26.112Z,3.92
2022-12-31T08:33:45.681Z,4.00
2022-12-31T08:37:02.559Z,3.98
2022-12-31T08:40:25.742Z,4.00
2022-12-31T08:43:50.462Z,4.00
2022-12-31T08:47:14.208Z,4.00
2022-12-31T08:50:24.594Z,4.00
2022-12-31T08:53:35.342Z,4.00
2022-12-31T08:56:50.878Z,4.00
2022-12-31T09:00:12.497Z,4.10
2022-12-31T09:03:46.789Z,4.10
2022-12-31T09:07:01.961Z,4.10
2022-12-31T09:10:23.880Z,4.10
2022-12-31T09:13:55.254Z,4.10
2022-12-31T09:17:16.349Z,4.20
2022-12-31T09:20:42.457Z,4.20
2022-12-31T09:23:54.817Z,4.30
2022-12-31T09:27:18.278Z,4.40
2022-12-31T09:30:34.862Z,4.50
2022-12-31T09:33:52.943Z,4.60
2022-12-31T09:37:08.734Z,4.70
2022-12-31T09:41:00.583Z,4.76
2022-12-31T09:44:54.563Z,4.80
2022-12-31T09:48:43.810Z,4.90
2022-12-31T09:52:13.760Z,4.90
2022-12-31T09:55:47.345Z,5.00
2022-12-31T09:59:07.628Z,5.00
2022-12-31T10:02:42.811Z,5.04
2022-12-31T10:06:21.219Z,5.10
2022-12-31T10:09:51.213Z,5.10
2022-12-31T10:13:21.904Z,5.18
2022-12-31T10:16:54.260Z,5.20
2022-12-31T10:20:55.079Z,5.20
2022-12-31T10:24:30.560Z,5.20
2022-12-31T10:27:52.971Z,5.20
2022-12-31T10:31:16.590Z,5.24
2022-12-31T10:34:40.215Z,5.30
2022-12-31T10:37:59.108Z,5.30
2022-12-31T10:41:49.718Z,5.30
2022-12-31T10:45:43.938Z,5.30
2022-12-31T10:49:55.825Z,5.38
2022-12-31T10:53:53.872Z,5.40
2022-12-31T10:57:42.065Z,5.44
2022-12-31T11:01:03.840Z,5.50
2022-12-31T11:08:28.487Z,5.62
2022-12-31T11:11:47.236Z,5.70
2022-12-31T11:15:32.148Z,5.74
2022-12-31T11:18:56.594Z,5.90
2022-12-31T11:22:39.430Z,6.00
2022-12-31T11:26:06.524Z,6.10
2022-12-31T11:29:32.035Z,6.20
2022-12-31T11:33:03.777Z,6.28
2022-12-31T11:36:26.510Z,6.38
2022-12-31T11:40:00.314Z,6.50
2022-12-31T11:43:25.223Z,6.60
2022-12-31T11:46:52.801Z,6.70
2022-12-31T11:50:26.500Z,6.80
2022-12-31T11:54:02.449Z,7.00
2022-12-31T11:57:28.925Z,7.10
2022-12-31T12:00:40.011Z,7.20
2022-12-31T12:03:48.622Z,7.30
2022-12-31T12:06:57.963Z,7.40
2022-12-31T12:10:23.464Z,7.50
2022-12-31T12:13:32.291Z,7.60
2022-12-31T12:16:40.862Z,7.70
2022-12-31T12:19:58.268Z,7.80
2022-12-31T12:23:17.809Z,7.90
2022-12-31T12:26:37.539Z,7.90
2022-12-31T12:29:47.484Z,7.90
2022-12-31T12:33:02.416Z,7.90
2022-12-31T12:36:17.192Z,7.90
2022-12-31T12:39:28.632Z,8.00
2022-12-31T12:42:37.114Z,8.10
2022-12-31T12:45:52.083Z,8.24
2022-12-31T12:49:01.743Z,8.32
2022-12-31T12:52:38.861Z,8.30
2022-12-31T12:56:01.186Z,8.30
2022-12-31T12:59:48.882Z,8.30
2022-12-31T13:07:48.644Z,8.20
2022-12-31T13:11:16.018Z,8.12
2022-12-31T13:14:36.102Z,8.10
2022-12-31T13:18:06.637Z,8.06
2022-12-31T13:21:35.951Z,8.00
2022-12-31T13:25:02.386Z,8.00
2022-12-31T13:28:17.146Z,8.00
2022-12-31T13:31:32.213Z,7.94
2022-12-31T13:34:48.015Z,7.92
2022-12-31T13:38:05.411Z,7.92
2022-12-31T13:41:22.665Z,8.00
2022-12-31T13:44:41.004Z,8.00
2022-12-31T13:47:54.160Z,8.00
2022-12-31T13:51:09.370Z,8.00
2022-12-31T13:54:33.429Z,8.00
2022-12-31T13:57:50.107Z,8.00
2022-12-31T14:01:08.986Z,8.00
2022-12-31T14:04:28.525Z,8.08
2022-12-31T14:07:45.968Z,8.10
2022-12-31T14:11:08.545Z,8.30
2022-12-31T14:14:32.159Z,8.70
2022-12-31T14:17:52.089Z,8.80
2022-12-31T14:21:10.062Z,8.90
2022-12-31T14:24:32.977Z,8.90
2022-12-31T14:27:46.585Z,8.90
2022-12-31T14:31:03.197Z,8.98
2022-12-31T14:34:20.049Z,8.98
2022-12-31T14:37:42.933Z,8.90
2022-12-31T14:41:08.744Z,8.90
2022-12-31T14:44:33.803Z,8.86
2022-12-31T14:47:55.100Z,8.80
2022-12-31T14:51:07.280Z,8.80
2022-12-31T14:54:36.374Z,8.74
2022-12-31T14:58:25.822Z,8.70
2022-12-31T15:01:26.448Z,8.70
2022-12-31T15:04:46.927Z,8.70
2022-12-31T15:08:15.703Z,8.70
2022-12-31T15:11:43.358Z,8.70
2022-12-31T15:15:42.987Z,8.70
2022-12-31T15:19:34.898Z,8.70
2022-12-31T15:22:47.734Z,8.70
2022-12-31T15:26:01.981Z,8.70
2022-12-31T15:29:29.307Z,8.70
2022-12-31T15:32:44.157Z,8.62
2022-12-31T15:35:56.166Z,8.60
2022-12-31T15:39:40.590Z,8.50
2022-12-31T15:42:55.775Z,8.40
2022-12-31T15:46:10.475Z,8.40
2022-12-31T15:49:24.360Z,8.40
2022-12-31T15:52:43.670Z,8.40
2022-12-31T15:55:57.798Z,8.40
2022-12-31T15:59:15.825Z,8.40
2022-12-31T16:02:28.190Z,8.50
2022-12-31T16:05:39.245Z,8.50
2022-12-31T16:08:51.299Z,8.50
2022-12-31T16:12:02.525Z,8.50
2022-12-31T16:15:25.059Z,8.50
2022-12-31T16:18:42.950Z,8.50
2022-12-31T16:21:58.823Z,8.50
2022-12-31T16:25:30.157Z,8.50
2022-12-31T16:28:38.476Z,8.50
2022-12-31T16:31:48.316Z,8.50
2022-12-31T16:34:54.932Z,8.50
2022-12-31T16:38:22.486Z,8.50
2022-12-31T16:41:44.281Z,8.40
2022-12-31T16:44:54.390Z,8.40
2022-12-31T16:48:16.746Z,8.30
2022-12-31T16:51:31.181Z,8.30
2022-12-31T16:54:45.183Z,8.28
2022-12-31T16:57:58.005Z,8.20
2022-12-31T17:01:19.669Z,8.20
2022-12-31T17:04:28.949Z,8.20
2022-12-31T17:07:45.836Z,8.20
2022-12-31T17:10:54.423Z,8.20
2022-12-31T17:14:17.469Z,8.28
2022-12-31T17:17:30.045Z,8.30
2022-12-31T17:20:38.922Z,8.40
2022-12-31T17:23:56.189Z,8.40
2022-12-31T17:27:11.330Z,8.50
2022-12-31T17:30:42.684Z,8.50
2022-12-31T17:33:53.890Z,8.60
2022-12-31T17:37:18.275Z,8.60
2022-12-31T17:44:10.034Z,8.50
2022-12-31T17:47:18.367Z,8.50
2022-12-31T17:50:29.668Z,8.40
2022-12-31T17:53:37.596Z,8.40
2022-12-31T17:56:46.393Z,8.50
2022-12-31T17:59:54.973Z,8.50
2022-12-31T18:03:02.894Z,8.50
2022-12-31T18:06:16.591Z,8.50
2022-12-31T18:09:24.698Z,8.50
2022-12-31T18:12:35.908Z,8.40
2022-12-31T18:15:45.010Z,8.40
2022-12-31T18:18:53.176Z,8.30
2022-12-31T18:22:01.372Z,8.30
2022-12-31T18:25:14.424Z,8.30
2022-12-31T18:28:23.304Z,8.30
2022-12-31T18:31:32.885Z,8.30
2022-12-31T18:34:40.911Z,8.30
2022-12-31T18:37:49.572Z,8.40
2022-12-31T18:41:00.885Z,8.40
2022-12-31T18:44:11.512Z,8.50
2022-12-31T18:47:23.723Z,8.50
2022-12-31T18:50:31.680Z,8.54
2022-12-31T18:53:39.771Z,8.60
2022-12-31T18:56:52.555Z,8.60
2022-12-31T19:00:03.601Z,8.60
2022-12-31T19:03:16.066Z,8.60
2022-12-31T19:06:24.690Z,8.60
2022-12-31T19:09:51.421Z,8.56
2022-12-31T19:13:00.292Z,8.60
2022-12-31T19:16:09.906Z,8.60
2022-12-31T19:19:18.633Z,8.68
2022-12-31T19:22:26.633Z,8.70
2022-12-31T19:25:37.778Z,8.80
2022-12-31T19:28:46.301Z,8.80
2022-12-31T19:31:54.719Z,8.70
2022-12-31T19:35:02.807Z,8.70
2022-12-31T19:38:20.439Z,8.60
2022-12-31T19:41:28.228Z,8.60
2022-12-31T19:44:36.071Z,8.50
2022-12-31T19:47:44.991Z,8.44
2022-12-31T19:50:55.577Z,8.40
2022-12-31T19:54:03.617Z,8.40
2022-12-31T19:57:11.269Z,8.30
2022-12-31T20:00:21.376Z,8.30
2022-12-31T20:03:29.544Z,8.30
2022-12-31T20:06:37.644Z,8.20
2022-12-31T20:09:45.496Z,8.20
2022-12-31T20:12:53.621Z,8.20
2022-12-31T20:16:01.415Z,8.14
2022-12-31T20:19:10.503Z,8.10
2022-12-31T20:22:18.578Z,8.04
2022-12-31T20:25:27.073Z,8.00
2022-12-31T20:28:34.914Z,8.00
2022-12-31T20:31:42.857Z,8.00
2022-12-31T20:34:50.766Z,7.90
2022-12-31T20:37:59.177Z,8.00
2022-12-31T20:41:13.625Z,8.00
2022-12-31T20:44:21.712Z,8.00
2022-12-31T20:47:29.443Z,7.92
2022-12-31T20:50:37.664Z,7.90
2022-12-31T20:53:51.418Z,7.90
2022-12-31T20:57:00.225Z,7.90
2022-12-31T21:00:12.444Z,7.80
2022-12-31T21:04:02.333Z,7.80
2022-12-31T21:06:49.306Z,7.80
2022-12-31T21:09:57.396Z,7.80
2022-12-31T21:13:05.203Z,7.90
2022-12-31T21:16:13.342Z,8.00
2022-12-31T21:19:21.257Z,8.00
2022-12-31T21:22:30.262Z,8.02
2022-12-31T21:25:38.065Z,8.10
2022-12-31T21:28:46.158Z,8.10
2022-12-31T21:31:54.183Z,8.10
2022-12-31T21:35:40.453Z,8.10
2022-12-31T21:38:30.609Z,8.10
2022-12-31T21:41:54.167Z,8.10
2022-12-31T21:45:02.168Z,8.16
2022-12-31T21:48:25.122Z,8.10
2022-12-31T21:51:53.630Z,8.10
2022-12-31T21:55:21.724Z,8.10
2022-12-31T21:58:29.726Z,8.10
2022-12-31T22:01:55.368Z,8.10
2022-12-31T22:05:07.262Z,8.06
2022-12-31T22:08:20.923Z,8.00
2022-12-31T22:11:30.488Z,7.92
2022-12-31T22:14:38.269Z,7.90
2022-12-31T22:17:46.616Z,7.90
2022-12-31T22:21:03.410Z,7.90
2022-12-31T22:24:12.807Z,7.90
2022-12-31T22:27:28.255Z,7.90
2022-12-31T22:30:37.863Z,7.90
2022-12-31T22:33:47.514Z,7.92
2022-12-31T22:36:55.480Z,8.00
2022-12-31T22:40:03.852Z,8.10
2022-12-31T22:43:12.689Z,8.20
2022-12-31T22:46:24.200Z,8.26
2022-12-31T22:49:32.093Z,8.30
2022-12-31T22:52:40.943Z,8.40
2022-12-31T22:55:49.048Z,8.50
2022-12-31T22:58:57.201Z,8.60
2022-12-31T23:02:05.440Z,8.68
2022-12-31T23:05:14.875Z,8.70
2022-12-31T23:08:26.678Z,8.78
2022-12-31T23:11:35.931Z,8.80
2022-12-31T23:15:01.932Z,8.80
2022-12-31T23:18:27.858Z,8.80
2022-12-31T23:21:54.531Z,8.80
2022-12-31T23:25:02.437Z,8.70
2022-12-31T23:28:14.370Z,8.70
2022-12-31T23:31:22.341Z,8.70
2022-12-31T23:34:30.236Z,8.62
2022-12-31T23:37:38.898Z,8.60
2022-12-31T23:40:47.261Z,8.60
2022-12-31T23:43:55.294Z,8.52
2022-12-31T23:47:03.679Z,8.50
2022-12-31T23:50:13.259Z,8.46
2022-12-31T23:53:21.446Z,8.40
2022-12-31T23:56:29.147Z,8.30
2022-12-31T23:59:36.872Z,8.20
